KTOR/TOR METAR and TAF weather

Enter ICAO airport designator
Station Type Date Time Source
KTOR METAR 2019/12/08 16:53 UTC NOAA

KTOR 081653Z AUTO 15004KT 10SM CLR 04/M01 A2972 RMK AO2 SLP059 T00441006


Station Type Date Time Source
KTOR Decoded METAR 2019/12/08 16:53 UTC NOAA

TORRINGTON MUNICIPAL AIRPORT, WY, United States (KTOR) 42-03N 104-09W 1277M
Dec 08, 2019 - 11:53 AM EST / 2019.12.08 1653 UTC
Wind: from the SSE (150 degrees) at 5 MPH (4 KT):0
Visibility: 10 mile(s):0
Sky conditions: clear
Temperature: 39.9 F (4.4 C)
Dew Point: 30.9 F (-0.6 C)
Relative Humidity: 69%
Pressure (altimeter): 29.72 in. Hg (1006 hPa)
ob: KTOR 081653Z AUTO 15004KT 10SM CLR 04/M01 A2972 RMK AO2 SLP059 T00441006
cycle: 17

Station Type Date Time Source
KTOR TAF UTC NOAA

Error!

Example: see airport list